sensor_id;sensor_type;location;lat;lon;timestamp;P1;durP1;ratioP1;P2;durP2;ratioP2
20739;SDS011;10530;49.968;19.844;2023-09-07T00:00:37;13.73;;;5.03;;
20739;SDS011;10530;49.968;19.844;2023-09-07T00:05:40;15.32;;;6.18;;
20739;SDS011;10530;49.968;19.844;2023-09-07T00:10:44;16.95;;;6.70;;
20739;SDS011;10530;49.968;19.844;2023-09-07T00:15:47;14.38;;;5.40;;
20739;SDS011;10530;49.968;19.844;2023-09-07T00:20:50;16.60;;;6.45;;
20739;SDS011;10530;49.968;19.844;2023-09-07T00:25:53;13.10;;;6.07;;
20739;SDS011;10530;49.968;19.844;2023-09-07T00:30:56;11.68;;;5.30;;
20739;SDS011;10530;49.968;19.844;2023-09-07T00:36:01;12.90;;;5.60;;
20739;SDS011;10530;49.968;19.844;2023-09-07T00:41:05;14.27;;;5.43;;
20739;SDS011;10530;49.968;19.844;2023-09-07T00:46:08;15.75;;;5.63;;
20739;SDS011;10530;49.968;19.844;2023-09-07T00:51:11;15.10;;;5.73;;
20739;SDS011;10530;49.968;19.844;2023-09-07T00:56:14;12.65;;;5.32;;
20739;SDS011;10530;49.968;19.844;2023-09-07T01:01:18;13.20;;;6.05;;
20739;SDS011;10530;49.968;19.844;2023-09-07T01:06:32;13.23;;;6.00;;
20739;SDS011;10530;49.968;19.844;2023-09-07T01:11:41;12.70;;;5.85;;
20739;SDS011;10530;49.968;19.844;2023-09-07T01:16:44;11.53;;;5.33;;
20739;SDS011;10530;49.968;19.844;2023-09-07T01:21:48;9.55;;;4.70;;
20739;SDS011;10530;49.968;19.844;2023-09-07T01:26:52;13.68;;;5.82;;
20739;SDS011;10530;49.968;19.844;2023-09-07T01:31:56;14.95;;;5.13;;
20739;SDS011;10530;49.968;19.844;2023-09-07T01:36:59;11.52;;;5.18;;
20739;SDS011;10530;49.968;19.844;2023-09-07T01:42:02;11.87;;;5.80;;
20739;SDS011;10530;49.968;19.844;2023-09-07T01:47:06;12.50;;;5.63;;
20739;SDS011;10530;49.968;19.844;2023-09-07T01:52:09;12.80;;;5.18;;
20739;SDS011;10530;49.968;19.844;2023-09-07T01:57:12;12.55;;;5.82;;
20739;SDS011;10530;49.968;19.844;2023-09-07T02:02:15;14.95;;;6.15;;
20739;SDS011;10530;49.968;19.844;2023-09-07T02:07:18;10.70;;;5.47;;
20739;SDS011;10530;49.968;19.844;2023-09-07T02:12:22;11.15;;;5.20;;
20739;SDS011;10530;49.968;19.844;2023-09-07T02:17:25;14.00;;;5.78;;
20739;SDS011;10530;49.968;19.844;2023-09-07T02:22:29;11.52;;;5.72;;
20739;SDS011;10530;49.968;19.844;2023-09-07T02:27:32;14.60;;;5.60;;
20739;SDS011;10530;49.968;19.844;2023-09-07T02:32:35;10.23;;;5.33;;
20739;SDS011;10530;49.968;19.844;2023-09-07T02:37:38;12.75;;;5.43;;
20739;SDS011;10530;49.968;19.844;2023-09-07T02:42:42;12.15;;;5.65;;
20739;SDS011;10530;49.968;19.844;2023-09-07T02:47:45;13.50;;;5.97;;
20739;SDS011;10530;49.968;19.844;2023-09-07T02:52:49;13.55;;;5.78;;
20739;SDS011;10530;49.968;19.844;2023-09-07T02:57:52;9.80;;;4.97;;
20739;SDS011;10530;49.968;19.844;2023-09-07T03:02:57;12.05;;;5.25;;
20739;SDS011;10530;49.968;19.844;2023-09-07T03:08:00;13.57;;;5.45;;
20739;SDS011;10530;49.968;19.844;2023-09-07T03:13:08;11.45;;;5.40;;
20739;SDS011;10530;49.968;19.844;2023-09-07T03:18:11;11.27;;;4.68;;
20739;SDS011;10530;49.968;19.844;2023-09-07T03:23:16;11.60;;;5.20;;
20739;SDS011;10530;49.968;19.844;2023-09-07T03:28:19;11.25;;;5.38;;
20739;SDS011;10530;49.968;19.844;2023-09-07T03:33:23;12.10;;;4.57;;
20739;SDS011;10530;49.968;19.844;2023-09-07T03:38:26;10.50;;;4.10;;
20739;SDS011;10530;49.968;19.844;2023-09-07T03:43:29;13.13;;;4.90;;
20739;SDS011;10530;49.968;19.844;2023-09-07T03:48:33;9.70;;;4.20;;
20739;SDS011;10530;49.968;19.844;2023-09-07T03:53:39;8.93;;;4.13;;
20739;SDS011;10530;49.968;19.844;2023-09-07T03:58:42;8.88;;;4.30;;
20739;SDS011;10530;49.968;19.844;2023-09-07T04:03:45;8.95;;;4.32;;
20739;SDS011;10530;49.968;19.844;2023-09-07T04:08:48;9.48;;;4.15;;
20739;SDS011;10530;49.968;19.844;2023-09-07T04:13:51;7.17;;;4.00;;
20739;SDS011;10530;49.968;19.844;2023-09-07T04:18:54;6.95;;;3.55;;
20739;SDS011;10530;49.968;19.844;2023-09-07T04:23:57;12.00;;;4.78;;
20739;SDS011;10530;49.968;19.844;2023-09-07T04:29:00;9.63;;;4.65;;
20739;SDS011;10530;49.968;19.844;2023-09-07T04:34:04;14.55;;;4.78;;
20739;SDS011;10530;49.968;19.844;2023-09-07T04:39:07;8.70;;;4.60;;
20739;SDS011;10530;49.968;19.844;2023-09-07T04:44:10;12.73;;;4.80;;
20739;SDS011;10530;49.968;19.844;2023-09-07T04:49:13;9.88;;;4.43;;
20739;SDS011;10530;49.968;19.844;2023-09-07T04:54:17;11.90;;;5.05;;
20739;SDS011;10530;49.968;19.844;2023-09-07T04:59:20;9.80;;;4.05;;
20739;SDS011;10530;49.968;19.844;2023-09-07T05:04:23;10.03;;;4.60;;
20739;SDS011;10530;49.968;19.844;2023-09-07T05:09:26;11.30;;;4.68;;
20739;SDS011;10530;49.968;19.844;2023-09-07T05:14:32;12.15;;;5.50;;
20739;SDS011;10530;49.968;19.844;2023-09-07T05:19:35;11.93;;;5.15;;
20739;SDS011;10530;49.968;19.844;2023-09-07T05:24:38;12.07;;;6.53;;
20739;SDS011;10530;49.968;19.844;2023-09-07T05:29:43;13.93;;;6.53;;
20739;SDS011;10530;49.968;19.844;2023-09-07T05:34:47;13.05;;;6.07;;
20739;SDS011;10530;49.968;19.844;2023-09-07T05:39:50;16.58;;;6.95;;
20739;SDS011;10530;49.968;19.844;2023-09-07T05:44:53;17.20;;;6.75;;
20739;SDS011;10530;49.968;19.844;2023-09-07T05:49:58;14.10;;;6.22;;
20739;SDS011;10530;49.968;19.844;2023-09-07T05:55:01;12.17;;;6.27;;
20739;SDS011;10530;49.968;19.844;2023-09-07T06:00:05;14.55;;;6.93;;
20739;SDS011;10530;49.968;19.844;2023-09-07T06:05:13;15.73;;;6.38;;
20739;SDS011;10530;49.968;19.844;2023-09-07T06:10:17;14.73;;;7.00;;
20739;SDS011;10530;49.968;19.844;2023-09-07T06:15:23;17.48;;;8.10;;
20739;SDS011;10530;49.968;19.844;2023-09-07T06:20:26;24.40;;;8.20;;
20739;SDS011;10530;49.968;19.844;2023-09-07T06:25:32;16.23;;;8.48;;
20739;SDS011;10530;49.968;19.844;2023-09-07T06:30:36;20.40;;;8.63;;
20739;SDS011;10530;49.968;19.844;2023-09-07T06:35:39;19.30;;;8.60;;
20739;SDS011;10530;49.968;19.844;2023-09-07T06:40:47;16.90;;;8.45;;
20739;SDS011;10530;49.968;19.844;2023-09-07T06:45:53;18.70;;;8.03;;
20739;SDS011;10530;49.968;19.844;2023-09-07T06:51:00;14.98;;;7.28;;
20739;SDS011;10530;49.968;19.844;2023-09-07T06:56:08;13.13;;;6.93;;
20739;SDS011;10530;49.968;19.844;2023-09-07T07:01:11;14.18;;;6.60;;
20739;SDS011;10530;49.968;19.844;2023-09-07T07:06:15;13.35;;;6.28;;
20739;SDS011;10530;49.968;19.844;2023-09-07T07:11:18;14.13;;;7.00;;
20739;SDS011;10530;49.968;19.844;2023-09-07T07:16:22;14.07;;;6.50;;
20739;SDS011;10530;49.968;19.844;2023-09-07T07:21:26;17.38;;;6.45;;
20739;SDS011;10530;49.968;19.844;2023-09-07T07:26:29;13.35;;;6.03;;
20739;SDS011;10530;49.968;19.844;2023-09-07T07:31:33;14.02;;;5.97;;
20739;SDS011;10530;49.968;19.844;2023-09-07T07:36:37;12.73;;;5.87;;
20739;SDS011;10530;49.968;19.844;2023-09-07T07:41:40;12.40;;;6.10;;
20739;SDS011;10530;49.968;19.844;2023-09-07T07:46:45;15.18;;;6.32;;
20739;SDS011;10530;49.968;19.844;2023-09-07T07:51:49;11.10;;;5.50;;
20739;SDS011;10530;49.968;19.844;2023-09-07T07:56:53;13.93;;;5.55;;
20739;SDS011;10530;49.968;19.844;2023-09-07T08:01:57;14.10;;;5.37;;
20739;SDS011;10530;49.968;19.844;2023-09-07T08:07:00;14.80;;;6.05;;
20739;SDS011;10530;49.968;19.844;2023-09-07T08:12:08;11.25;;;5.93;;
20739;SDS011;10530;49.968;19.844;2023-09-07T08:17:11;14.20;;;6.20;;
20739;SDS011;10530;49.968;19.844;2023-09-07T08:22:15;12.13;;;5.88;;
20739;SDS011;10530;49.968;19.844;2023-09-07T08:27:19;12.57;;;5.63;;
20739;SDS011;10530;49.968;19.844;2023-09-07T08:32:27;12.38;;;5.82;;
20739;SDS011;10530;49.968;19.844;2023-09-07T08:37:31;11.13;;;5.15;;
20739;SDS011;10530;49.968;19.844;2023-09-07T08:42:35;13.65;;;5.78;;
20739;SDS011;10530;49.968;19.844;2023-09-07T08:47:40;9.55;;;4.80;;
20739;SDS011;10530;49.968;19.844;2023-09-07T08:52:44;12.13;;;5.30;;
20739;SDS011;10530;49.968;19.844;2023-09-07T08:57:51;10.98;;;5.35;;
20739;SDS011;10530;49.968;19.844;2023-09-07T09:02:55;10.20;;;5.70;;
20739;SDS011;10530;49.968;19.844;2023-09-07T09:08:01;9.82;;;5.15;;
20739;SDS011;10530;49.968;19.844;2023-09-07T09:13:06;9.63;;;5.18;;
20739;SDS011;10530;49.968;19.844;2023-09-07T09:18:10;10.00;;;4.90;;
20739;SDS011;10530;49.968;19.844;2023-09-07T09:23:14;9.80;;;5.10;;
20739;SDS011;10530;49.968;19.844;2023-09-07T09:28:18;12.27;;;5.80;;
20739;SDS011;10530;49.968;19.844;2023-09-07T09:33:21;10.52;;;5.10;;
20739;SDS011;10530;49.968;19.844;2023-09-07T09:38:25;9.02;;;5.25;;
20739;SDS011;10530;49.968;19.844;2023-09-07T09:43:28;10.07;;;4.97;;
20739;SDS011;10530;49.968;19.844;2023-09-07T09:48:31;9.40;;;4.93;;
20739;SDS011;10530;49.968;19.844;2023-09-07T09:53:37;8.95;;;5.00;;
20739;SDS011;10530;49.968;19.844;2023-09-07T09:58:41;8.63;;;4.72;;
20739;SDS011;10530;49.968;19.844;2023-09-07T10:03:45;10.05;;;5.25;;
20739;SDS011;10530;49.968;19.844;2023-09-07T10:14:01;9.35;;;5.20;;
20739;SDS011;10530;49.968;19.844;2023-09-07T10:19:13;9.77;;;4.75;;
20739;SDS011;10530;49.968;19.844;2023-09-07T10:24:26;10.32;;;4.15;;
20739;SDS011;10530;49.968;19.844;2023-09-07T10:29:47;9.90;;;4.55;;
20739;SDS011;10530;49.968;19.844;2023-09-07T10:34:59;9.50;;;4.70;;
20739;SDS011;10530;49.968;19.844;2023-09-07T10:40:02;9.40;;;4.50;;
20739;SDS011;10530;49.968;19.844;2023-09-07T10:45:08;8.25;;;4.18;;
20739;SDS011;10530;49.968;19.844;2023-09-07T10:50:13;7.57;;;4.22;;
20739;SDS011;10530;49.968;19.844;2023-09-07T10:55:16;7.80;;;4.22;;
20739;SDS011;10530;49.968;19.844;2023-09-07T11:00:19;7.93;;;4.63;;
20739;SDS011;10530;49.968;19.844;2023-09-07T11:05:22;8.35;;;4.40;;
20739;SDS011;10530;49.968;19.844;2023-09-07T11:10:26;9.10;;;4.53;;
20739;SDS011;10530;49.968;19.844;2023-09-07T11:15:31;9.48;;;4.30;;
20739;SDS011;10530;49.968;19.844;2023-09-07T11:20:36;7.30;;;4.30;;
20739;SDS011;10530;49.968;19.844;2023-09-07T11:25:41;8.17;;;4.57;;
20739;SDS011;10530;49.968;19.844;2023-09-07T11:35:55;8.82;;;4.32;;
20739;SDS011;10530;49.968;19.844;2023-09-07T11:40:58;8.90;;;5.07;;
20739;SDS011;10530;49.968;19.844;2023-09-07T11:46:01;7.15;;;4.68;;
20739;SDS011;10530;49.968;19.844;2023-09-07T11:51:06;8.77;;;5.10;;
20739;SDS011;10530;49.968;19.844;2023-09-07T11:56:11;10.63;;;5.15;;
20739;SDS011;10530;49.968;19.844;2023-09-07T12:01:14;10.23;;;5.00;;
20739;SDS011;10530;49.968;19.844;2023-09-07T12:06:20;10.35;;;4.70;;
20739;SDS011;10530;49.968;19.844;2023-09-07T12:11:24;8.93;;;4.80;;
20739;SDS011;10530;49.968;19.844;2023-09-07T12:16:38;8.23;;;4.50;;
20739;SDS011;10530;49.968;19.844;2023-09-07T12:21:41;8.20;;;4.35;;
20739;SDS011;10530;49.968;19.844;2023-09-07T12:26:44;8.70;;;4.40;;
20739;SDS011;10530;49.968;19.844;2023-09-07T12:31:48;10.02;;;4.47;;
20739;SDS011;10530;49.968;19.844;2023-09-07T12:36:51;9.07;;;4.45;;
20739;SDS011;10530;49.968;19.844;2023-09-07T12:41:54;9.00;;;4.30;;
20739;SDS011;10530;49.968;19.844;2023-09-07T12:46:57;8.02;;;4.05;;
20739;SDS011;10530;49.968;19.844;2023-09-07T12:52:00;9.38;;;4.65;;
20739;SDS011;10530;49.968;19.844;2023-09-07T12:57:10;7.47;;;4.10;;
20739;SDS011;10530;49.968;19.844;2023-09-07T13:02:14;7.57;;;4.18;;
20739;SDS011;10530;49.968;19.844;2023-09-07T13:07:19;7.53;;;4.00;;
20739;SDS011;10530;49.968;19.844;2023-09-07T13:12:22;7.53;;;4.30;;
20739;SDS011;10530;49.968;19.844;2023-09-07T13:17:25;8.48;;;4.10;;
20739;SDS011;10530;49.968;19.844;2023-09-07T13:22:29;8.38;;;3.97;;
20739;SDS011;10530;49.968;19.844;2023-09-07T13:27:32;8.02;;;3.95;;
20739;SDS011;10530;49.968;19.844;2023-09-07T13:32:35;8.10;;;4.27;;
20739;SDS011;10530;49.968;19.844;2023-09-07T13:37:38;7.38;;;4.03;;
20739;SDS011;10530;49.968;19.844;2023-09-07T13:42:41;8.93;;;4.20;;
20739;SDS011;10530;49.968;19.844;2023-09-07T13:47:45;9.48;;;4.30;;
20739;SDS011;10530;49.968;19.844;2023-09-07T13:52:48;8.25;;;4.32;;
20739;SDS011;10530;49.968;19.844;2023-09-07T13:57:52;8.80;;;4.67;;
20739;SDS011;10530;49.968;19.844;2023-09-07T14:02:55;7.70;;;4.40;;
20739;SDS011;10530;49.968;19.844;2023-09-07T14:07:59;7.78;;;3.97;;
20739;SDS011;10530;49.968;19.844;2023-09-07T14:13:02;6.45;;;4.00;;
20739;SDS011;10530;49.968;19.844;2023-09-07T14:18:06;7.45;;;3.90;;
20739;SDS011;10530;49.968;19.844;2023-09-07T14:23:10;7.83;;;3.80;;
20739;SDS011;10530;49.968;19.844;2023-09-07T14:28:13;7.88;;;3.85;;
20739;SDS011;10530;49.968;19.844;2023-09-07T14:33:16;6.95;;;3.55;;
20739;SDS011;10530;49.968;19.844;2023-09-07T14:38:19;6.40;;;3.78;;
20739;SDS011;10530;49.968;19.844;2023-09-07T14:43:23;8.48;;;3.63;;
20739;SDS011;10530;49.968;19.844;2023-09-07T14:48:26;7.30;;;4.10;;
20739;SDS011;10530;49.968;19.844;2023-09-07T14:53:29;7.53;;;3.72;;
20739;SDS011;10530;49.968;19.844;2023-09-07T14:58:32;7.18;;;3.90;;
20739;SDS011;10530;49.968;19.844;2023-09-07T15:03:35;8.15;;;3.85;;
20739;SDS011;10530;49.968;19.844;2023-09-07T15:08:42;7.22;;;3.90;;
20739;SDS011;10530;49.968;19.844;2023-09-07T15:13:46;9.77;;;4.00;;
20739;SDS011;10530;49.968;19.844;2023-09-07T15:18:52;7.03;;;3.90;;
20739;SDS011;10530;49.968;19.844;2023-09-07T15:23:55;8.98;;;4.25;;
20739;SDS011;10530;49.968;19.844;2023-09-07T15:28:59;7.93;;;4.10;;
20739;SDS011;10530;49.968;19.844;2023-09-07T15:34:06;8.60;;;4.20;;
20739;SDS011;10530;49.968;19.844;2023-09-07T15:39:09;8.20;;;4.47;;
20739;SDS011;10530;49.968;19.844;2023-09-07T15:44:12;9.63;;;4.60;;
20739;SDS011;10530;49.968;19.844;2023-09-07T15:49:16;14.43;;;5.88;;
20739;SDS011;10530;49.968;19.844;2023-09-07T15:54:20;10.85;;;5.43;;
20739;SDS011;10530;49.968;19.844;2023-09-07T15:59:23;9.73;;;5.43;;
20739;SDS011;10530;49.968;19.844;2023-09-07T16:04:26;9.03;;;4.80;;
20739;SDS011;10530;49.968;19.844;2023-09-07T16:09:29;9.13;;;4.78;;
20739;SDS011;10530;49.968;19.844;2023-09-07T16:14:32;11.25;;;4.90;;
20739;SDS011;10530;49.968;19.844;2023-09-07T16:19:35;9.00;;;5.10;;
20739;SDS011;10530;49.968;19.844;2023-09-07T16:24:38;8.27;;;4.57;;
20739;SDS011;10530;49.968;19.844;2023-09-07T16:29:41;9.00;;;4.93;;
20739;SDS011;10530;49.968;19.844;2023-09-07T16:34:46;10.80;;;5.20;;
20739;SDS011;10530;49.968;19.844;2023-09-07T16:39:50;12.10;;;5.43;;
20739;SDS011;10530;49.968;19.844;2023-09-07T16:44:54;12.10;;;6.43;;
20739;SDS011;10530;49.968;19.844;2023-09-07T16:49:57;10.48;;;5.75;;
20739;SDS011;10530;49.968;19.844;2023-09-07T16:54:59;11.43;;;6.20;;
20739;SDS011;10530;49.968;19.844;2023-09-07T17:00:03;11.98;;;6.57;;
20739;SDS011;10530;49.968;19.844;2023-09-07T17:05:07;13.05;;;7.25;;
20739;SDS011;10530;49.968;19.844;2023-09-07T17:10:12;11.00;;;5.50;;
20739;SDS011;10530;49.968;19.844;2023-09-07T17:15:15;11.52;;;5.93;;
20739;SDS011;10530;49.968;19.844;2023-09-07T17:20:18;13.90;;;6.13;;
20739;SDS011;10530;49.968;19.844;2023-09-07T17:25:22;11.95;;;5.88;;
20739;SDS011;10530;49.968;19.844;2023-09-07T17:30:25;14.55;;;5.80;;
20739;SDS011;10530;49.968;19.844;2023-09-07T17:35:29;16.83;;;5.53;;
20739;SDS011;10530;49.968;19.844;2023-09-07T17:40:32;13.25;;;6.28;;
20739;SDS011;10530;49.968;19.844;2023-09-07T17:45:36;12.33;;;5.60;;
20739;SDS011;10530;49.968;19.844;2023-09-07T17:50:39;11.93;;;5.63;;
20739;SDS011;10530;49.968;19.844;2023-09-07T17:55:42;10.80;;;5.75;;
20739;SDS011;10530;49.968;19.844;2023-09-07T18:00:46;13.80;;;6.07;;
20739;SDS011;10530;49.968;19.844;2023-09-07T18:05:48;12.88;;;6.28;;
20739;SDS011;10530;49.968;19.844;2023-09-07T18:10:51;15.77;;;7.27;;
20739;SDS011;10530;49.968;19.844;2023-09-07T18:15:56;17.75;;;7.30;;
20739;SDS011;10530;49.968;19.844;2023-09-07T18:21:04;14.93;;;7.00;;
20739;SDS011;10530;49.968;19.844;2023-09-07T18:26:11;14.40;;;7.32;;
20739;SDS011;10530;49.968;19.844;2023-09-07T18:31:17;17.00;;;7.75;;
20739;SDS011;10530;49.968;19.844;2023-09-07T18:36:20;16.77;;;7.77;;
20739;SDS011;10530;49.968;19.844;2023-09-07T18:41:23;18.35;;;8.30;;
20739;SDS011;10530;49.968;19.844;2023-09-07T18:46:26;17.20;;;8.45;;
20739;SDS011;10530;49.968;19.844;2023-09-07T18:51:30;17.00;;;8.30;;
20739;SDS011;10530;49.968;19.844;2023-09-07T18:56:33;16.92;;;8.55;;
20739;SDS011;10530;49.968;19.844;2023-09-07T19:01:36;16.43;;;7.83;;
20739;SDS011;10530;49.968;19.844;2023-09-07T19:06:39;17.33;;;9.02;;
20739;SDS011;10530;49.968;19.844;2023-09-07T19:11:43;15.95;;;7.82;;
20739;SDS011;10530;49.968;19.844;2023-09-07T19:16:46;14.50;;;6.35;;
20739;SDS011;10530;49.968;19.844;2023-09-07T19:21:49;12.82;;;6.88;;
20739;SDS011;10530;49.968;19.844;2023-09-07T19:26:53;12.97;;;6.43;;
20739;SDS011;10530;49.968;19.844;2023-09-07T19:31:56;11.35;;;6.00;;
20739;SDS011;10530;49.968;19.844;2023-09-07T19:36:59;12.52;;;6.15;;
20739;SDS011;10530;49.968;19.844;2023-09-07T19:42:03;14.10;;;6.25;;
20739;SDS011;10530;49.968;19.844;2023-09-07T19:47:06;11.45;;;6.28;;
20739;SDS011;10530;49.968;19.844;2023-09-07T19:52:11;12.23;;;5.93;;
20739;SDS011;10530;49.968;19.844;2023-09-07T19:57:14;15.68;;;6.40;;
20739;SDS011;10530;49.968;19.844;2023-09-07T20:02:18;12.15;;;6.38;;
20739;SDS011;10530;49.968;19.844;2023-09-07T20:07:20;14.25;;;6.10;;
20739;SDS011;10530;49.968;19.844;2023-09-07T20:12:24;13.38;;;6.00;;
20739;SDS011;10530;49.968;19.844;2023-09-07T20:17:31;14.87;;;6.47;;
20739;SDS011;10530;49.968;19.844;2023-09-07T20:22:38;13.80;;;6.53;;
20739;SDS011;10530;49.968;19.844;2023-09-07T20:27:42;13.18;;;6.47;;
20739;SDS011;10530;49.968;19.844;2023-09-07T20:32:46;14.18;;;6.68;;
20739;SDS011;10530;49.968;19.844;2023-09-07T20:37:49;13.68;;;6.50;;
20739;SDS011;10530;49.968;19.844;2023-09-07T20:42:53;13.70;;;6.40;;
20739;SDS011;10530;49.968;19.844;2023-09-07T20:47:59;15.43;;;6.43;;
20739;SDS011;10530;49.968;19.844;2023-09-07T20:53:02;13.93;;;6.28;;
20739;SDS011;10530;49.968;19.844;2023-09-07T20:58:05;13.45;;;6.13;;
20739;SDS011;10530;49.968;19.844;2023-09-07T21:03:08;14.30;;;6.15;;
20739;SDS011;10530;49.968;19.844;2023-09-07T21:08:11;13.13;;;5.80;;
20739;SDS011;10530;49.968;19.844;2023-09-07T21:13:13;11.82;;;5.95;;
20739;SDS011;10530;49.968;19.844;2023-09-07T21:18:17;12.82;;;6.20;;
20739;SDS011;10530;49.968;19.844;2023-09-07T21:23:20;13.52;;;6.28;;
20739;SDS011;10530;49.968;19.844;2023-09-07T21:28:23;12.90;;;5.88;;
20739;SDS011;10530;49.968;19.844;2023-09-07T21:33:26;13.97;;;6.57;;
20739;SDS011;10530;49.968;19.844;2023-09-07T21:38:29;13.50;;;5.82;;
20739;SDS011;10530;49.968;19.844;2023-09-07T21:43:33;12.18;;;6.13;;
20739;SDS011;10530;49.968;19.844;2023-09-07T21:48:36;13.45;;;6.45;;
20739;SDS011;10530;49.968;19.844;2023-09-07T21:53:39;14.77;;;6.13;;
20739;SDS011;10530;49.968;19.844;2023-09-07T21:58:41;14.37;;;6.20;;
20739;SDS011;10530;49.968;19.844;2023-09-07T22:03:44;12.57;;;5.40;;
20739;SDS011;10530;49.968;19.844;2023-09-07T22:08:48;13.82;;;5.75;;
20739;SDS011;10530;49.968;19.844;2023-09-07T22:13:51;13.65;;;6.18;;
20739;SDS011;10530;49.968;19.844;2023-09-07T22:18:54;15.95;;;7.15;;
20739;SDS011;10530;49.968;19.844;2023-09-07T22:23:57;14.70;;;7.07;;
20739;SDS011;10530;49.968;19.844;2023-09-07T22:29:00;16.25;;;7.63;;
20739;SDS011;10530;49.968;19.844;2023-09-07T22:34:04;14.85;;;7.38;;
20739;SDS011;10530;49.968;19.844;2023-09-07T22:39:08;15.73;;;7.65;;
20739;SDS011;10530;49.968;19.844;2023-09-07T22:44:12;15.57;;;7.30;;
20739;SDS011;10530;49.968;19.844;2023-09-07T22:49:15;16.07;;;7.23;;
20739;SDS011;10530;49.968;19.844;2023-09-07T22:54:18;21.05;;;8.77;;
20739;SDS011;10530;49.968;19.844;2023-09-07T22:59:21;14.88;;;7.05;;
20739;SDS011;10530;49.968;19.844;2023-09-07T23:04:24;14.90;;;7.30;;
20739;SDS011;10530;49.968;19.844;2023-09-07T23:09:27;17.23;;;8.07;;
20739;SDS011;10530;49.968;19.844;2023-09-07T23:14:33;16.23;;;8.17;;
20739;SDS011;10530;49.968;19.844;2023-09-07T23:19:36;15.93;;;7.45;;
20739;SDS011;10530;49.968;19.844;2023-09-07T23:24:39;14.45;;;6.80;;
20739;SDS011;10530;49.968;19.844;2023-09-07T23:29:42;15.60;;;7.57;;
20739;SDS011;10530;49.968;19.844;2023-09-07T23:34:45;16.48;;;7.70;;
20739;SDS011;10530;49.968;19.844;2023-09-07T23:39:48;16.20;;;8.03;;
20739;SDS011;10530;49.968;19.844;2023-09-07T23:44:51;19.10;;;8.32;;
20739;SDS011;10530;49.968;19.844;2023-09-07T23:49:54;19.25;;;7.28;;
20739;SDS011;10530;49.968;19.844;2023-09-07T23:54:57;14.63;;;7.63;;
